Time;durP1;ratioP1;P1;durP2;ratioP2;P2;SDS_P1;SDS_P2;PMS_P1;PMS_P2;Temp;Humidity;BMP_temperature;BMP_pressure;BME280_temperature;BME280_humidity;BME280_pressure;Samples;Min_cycle;Max_cycle;Signal;HPM_P1;HPM_P2
2023/01/28 00:00:33;;;;;;;1.95;0.93;;;2.00;99.90;;;;;;5011840;28;20752;-65
2023/01/28 00:02:59;;;;;;;2.35;0.90;;;1.90;99.90;;;;;;5019511;28;20045;-65
2023/01/28 00:05:24;;;;;;;3.13;0.95;;;2.00;99.90;;;;;;5017313;28;20236;-65
2023/01/28 00:07:51;;;;;;;1.52;0.90;;;2.00;99.90;;;;;;5018077;28;20515;-64
2023/01/28 00:10:17;;;;;;;1.42;0.90;;;2.00;99.90;;;;;;5018968;28;20040;-64
2023/01/28 00:12:43;;;;;;;1.77;0.98;;;2.00;99.90;;;;;;5022466;28;20077;-64
2023/01/28 00:15:09;;;;;;;1.70;1.10;;;2.00;99.90;;;;;;5015006;28;20159;-64
2023/01/28 00:17:35;;;;;;;1.85;0.95;;;2.00;99.90;;;;;;5017173;28;20194;-65
2023/01/28 00:20:02;;;;;;;1.50;0.88;;;2.00;99.90;;;;;;5015580;28;20049;-64
2023/01/28 00:22:28;;;;;;;1.60;0.90;;;2.00;99.90;;;;;;5014745;28;20049;-64
2023/01/28 00:24:54;;;;;;;1.58;0.93;;;2.00;99.90;;;;;;5020719;28;20099;-63
2023/01/28 00:27:20;;;;;;;2.30;1.20;;;2.00;99.90;;;;;;5014574;28;20526;-64
2023/01/28 00:29:45;;;;;;;1.88;0.98;;;2.00;99.90;;;;;;5016460;28;20040;-63
2023/01/28 00:32:11;;;;;;;2.50;0.95;;;2.00;99.90;;;;;;5019333;28;20051;-64
2023/01/28 00:34:37;;;;;;;1.42;0.90;;;2.00;99.90;;;;;;5021066;28;20143;-64
2023/01/28 00:37:02;;;;;;;1.77;1.13;;;2.00;99.90;;;;;;4996563;28;20132;-64
2023/01/28 00:39:28;;;;;;;5.30;0.80;;;2.00;99.90;;;;;;5017426;28;20041;-64
2023/01/28 00:41:54;;;;;;;1.73;0.70;;;2.00;99.90;;;;;;5017103;28;20051;-64
2023/01/28 00:44:20;;;;;;;2.08;0.70;;;2.00;99.90;;;;;;5019156;28;20116;-64
2023/01/28 00:46:46;;;;;;;1.80;0.50;;;2.00;99.90;;;;;;5012503;28;21229;-64
2023/01/28 00:49:11;;;;;;;1.10;0.55;;;2.00;99.90;;;;;;4999448;28;20045;-65
2023/01/28 00:51:37;;;;;;;2.40;0.63;;;2.00;99.90;;;;;;5014982;28;20377;-64
2023/01/28 00:54:03;;;;;;;1.30;0.50;;;2.00;99.90;;;;;;5016581;28;20207;-65
2023/01/28 00:56:29;;;;;;;5.15;0.50;;;2.00;99.90;;;;;;5014202;28;20041;-64
2023/01/28 00:58:55;;;;;;;1.95;0.50;;;2.10;99.90;;;;;;5018328;28;21065;-64
2023/01/28 01:01:25;;;;;;;1.33;0.40;;;2.00;99.90;;;;;;5021175;28;20128;-63
2023/01/28 01:04:01;;;;;;;1.73;0.50;;;2.10;99.90;;;;;;5021472;28;20384;-64
2023/01/28 01:06:32;;;;;;;1.10;0.40;;;2.10;99.90;;;;;;5020602;28;20049;-64
2023/01/28 01:08:58;;;;;;;2.55;0.52;;;2.10;99.90;;;;;;5019150;28;20056;-64
2023/01/28 01:11:24;;;;;;;2.60;0.50;;;2.10;99.90;;;;;;5017548;28;20037;-64
2023/01/28 01:13:55;;;;;;;2.47;0.50;;;2.10;99.90;;;;;;5019254;28;20754;-63
2023/01/28 01:16:23;;;;;;;2.33;1.75;;;2.10;99.90;;;;;;5018403;28;20507;-64
2023/01/28 01:18:53;;;;;;;3.30;2.92;;;2.10;99.90;;;;;;5016154;28;20268;-64
2023/01/28 01:21:23;;;;;;;4.80;3.20;;;2.10;99.90;;;;;;5018849;28;20037;-64
2023/01/28 01:23:48;;;;;;;4.30;3.00;;;2.10;99.90;;;;;;5021691;28;20354;-64
2023/01/28 01:26:14;;;;;;;4.50;3.00;;;2.10;99.90;;;;;;5019209;28;20422;-65
2023/01/28 01:28:41;;;;;;;3.67;3.38;;;2.00;99.90;;;;;;5018974;28;20045;-64
2023/01/28 01:31:18;;;;;;;4.78;2.90;;;2.00;99.90;;;;;;5021491;28;20349;-64
2023/01/28 01:33:46;;;;;;;5.30;3.25;;;2.00;99.90;;;;;;5023510;28;20194;-64
2023/01/28 01:36:14;;;;;;;3.40;3.08;;;2.00;99.90;;;;;;5031033;28;20528;-64
2023/01/28 01:38:40;;;;;;;3.22;2.92;;;2.00;99.90;;;;;;5031047;28;20037;-64
2023/01/28 01:41:07;;;;;;;4.65;3.10;;;2.00;99.90;;;;;;5021311;28;20069;-64
2023/01/28 01:43:55;;;;;;;4.70;3.47;;;2.00;99.90;;;;;;5029213;28;20071;-64
2023/01/28 01:46:46;;;;;;;3.70;3.03;;;2.00;99.90;;;;;;5019888;28;20041;-64
2023/01/28 01:49:20;;;;;;;3.53;2.70;;;2.00;99.90;;;;;;5021452;28;20048;-63
2023/01/28 01:51:51;;;;;;;4.10;3.30;;;2.00;99.90;;;;;;5013334;28;20044;-64
2023/01/28 01:54:19;;;;;;;4.30;3.70;;;2.00;99.90;;;;;;5023595;28;20434;-63
2023/01/28 01:56:48;;;;;;;3.78;3.47;;;2.00;99.90;;;;;;5018130;28;20383;-64
2023/01/28 01:59:21;;;;;;;4.95;3.67;;;2.00;99.90;;;;;;5026011;28;20049;-63
2023/01/28 02:01:47;;;;;;;4.22;3.83;;;2.10;99.90;;;;;;5020520;28;20056;-63
2023/01/28 02:04:24;;;;;;;4.35;3.65;;;2.00;99.90;;;;;;5020702;28;20048;-63
2023/01/28 02:06:49;;;;;;;3.70;3.40;;;2.00;99.90;;;;;;4994977;28;20085;-63
2023/01/28 02:09:28;;;;;;;5.18;3.83;;;2.00;99.90;;;;;;5000274;28;20490;-63
2023/01/28 02:11:57;;;;;;;5.32;3.40;;;2.00;99.90;;;;;;5023654;28;20221;-64
2023/01/28 02:14:28;;;;;;;5.45;3.75;;;2.00;99.90;;;;;;5018833;28;20414;-63
2023/01/28 02:16:54;;;;;;;4.85;3.38;;;2.00;99.90;;;;;;5003357;28;21028;-63
2023/01/28 02:19:25;;;;;;;3.80;3.17;;;2.00;99.90;;;;;;5018294;28;20495;-63
2023/01/28 02:22:25;;;;;;;5.82;3.53;;;1.90;99.90;;;;;;5013957;28;20052;-64
2023/01/28 02:25:03;;;;;;;5.82;3.90;;;1.90;99.90;;;;;;5016602;28;20087;-64
2023/01/28 02:27:47;;;;;;;6.30;4.43;;;1.90;99.90;;;;;;5018998;28;20474;-65
2023/01/28 02:30:25;;;;;;;4.90;4.20;;;2.00;99.90;;;;;;5014694;28;20037;-63
2023/01/28 02:33:02;;;;;;;4.60;3.60;;;2.00;99.90;;;;;;5012134;28;20041;-63
2023/01/28 02:35:38;;;;;;;5.88;3.75;;;1.90;99.90;;;;;;5018280;28;20037;-63
2023/01/28 02:38:16;;;;;;;5.88;4.20;;;1.90;99.90;;;;;;5017769;28;20049;-63
2023/01/28 02:41:05;;;;;;;6.53;4.43;;;1.90;99.90;;;;;;5021771;28;20375;-64
2023/01/28 02:43:41;;;;;;;5.70;3.97;;;1.90;99.90;;;;;;5017897;28;20071;-64
2023/01/28 02:49:19;;;;;;;6.57;4.00;;;1.90;99.90;;;;;;5018458;28;20186;-64
2023/01/28 02:51:59;;;;;;;5.65;3.63;;;1.90;99.90;;;;;;5003425;28;20156;-64
2023/01/28 02:55:00;;;;;;;4.10;3.70;;;1.90;99.90;;;;;;5023804;28;20560;-64
2023/01/28 02:57:42;;;;;;;7.32;4.13;;;1.90;99.90;;;;;;5023628;28;20295;-64
2023/01/28 03:00:18;;;;;;;6.45;4.43;;;1.80;99.90;;;;;;5012927;28;20368;-64
2023/01/28 03:02:49;;;;;;;7.47;4.28;;;1.90;99.90;;;;;;5019120;28;20037;-64
2023/01/28 03:05:33;;;;;;;6.05;4.28;;;1.90;99.90;;;;;;5014355;28;20040;-64
2023/01/28 03:07:59;;;;;;;4.93;4.10;;;1.90;99.90;;;;;;5011869;28;20443;-64
2023/01/28 03:10:27;;;;;;;7.43;4.60;;;1.90;99.90;;;;;;5015172;28;20451;-64
2023/01/28 03:38:40;;;;;;;7.03;5.35;;;1.80;99.90;;;;;;5022390;28;20300;-63
2023/01/28 03:41:08;;;;;;;6.68;4.93;;;1.80;99.90;;;;;;5011116;28;20057;-64
2023/01/28 03:43:34;;;;;;;7.63;4.63;;;1.70;99.90;;;;;;5012316;28;20072;-64
2023/01/28 03:46:00;;;;;;;6.45;5.03;;;1.80;99.90;;;;;;5017625;28;20091;-63
2023/01/28 03:48:27;;;;;;;6.68;4.88;;;1.80;99.90;;;;;;5019275;28;20041;-63
2023/01/28 03:50:55;;;;;;;7.78;5.00;;;1.80;99.90;;;;;;5023928;28;20036;-63
2023/01/28 03:53:21;;;;;;;6.43;5.10;;;1.80;99.90;;;;;;5015415;28;20196;-64
2023/01/28 03:55:49;;;;;;;6.35;4.97;;;1.80;99.90;;;;;;5022840;28;20033;-63
2023/01/28 03:58:16;;;;;;;6.50;4.88;;;1.80;99.90;;;;;;5019337;28;20036;-63
2023/01/28 04:00:42;;;;;;;6.88;4.80;;;1.80;99.90;;;;;;5016884;28;20045;-64
2023/01/28 04:03:15;;;;;;;6.28;4.53;;;1.80;99.90;;;;;;5021047;28;20045;-63
2023/01/28 04:05:45;;;;;;;5.63;5.05;;;1.80;99.90;;;;;;5023662;28;20668;-63
2023/01/28 04:08:12;;;;;;;6.38;5.05;;;1.80;99.90;;;;;;5015102;28;20476;-63
2023/01/28 04:10:38;;;;;;;5.63;4.88;;;1.80;99.90;;;;;;5017391;28;20037;-64
2023/01/28 04:13:05;;;;;;;8.25;5.15;;;1.70;99.90;;;;;;5016534;28;20288;-64
2023/01/28 04:15:31;;;;;;;7.00;4.82;;;1.70;99.90;;;;;;5024948;28;20044;-64
2023/01/28 04:17:57;;;;;;;5.57;5.07;;;1.80;99.90;;;;;;5024477;28;20037;-63
2023/01/28 04:20:23;;;;;;;5.10;4.60;;;1.70;99.90;;;;;;5016177;28;20164;-63
2023/01/28 04:22:48;;;;;;;5.60;4.90;;;1.70;99.90;;;;;;5021524;28;20037;-63
2023/01/28 04:25:14;;;;;;;5.57;5.07;;;1.70;99.90;;;;;;5002768;28;20045;-64
2023/01/28 04:27:40;;;;;;;6.28;4.90;;;1.70;99.90;;;;;;5021368;28;20041;-63
2023/01/28 04:30:06;;;;;;;7.80;4.88;;;1.70;99.90;;;;;;5021812;28;20045;-64
2023/01/28 04:32:32;;;;;;;8.48;4.57;;;1.70;99.90;;;;;;5017464;28;20033;-63
2023/01/28 04:34:57;;;;;;;7.53;4.90;;;1.70;99.90;;;;;;5015338;28;20103;-62
2023/01/28 04:37:23;;;;;;;5.80;5.20;;;1.70;99.90;;;;;;4999646;28;20477;-63
2023/01/28 04:39:49;;;;;;;6.35;4.90;;;1.70;99.90;;;;;;5015736;28;20055;-62
2023/01/28 04:42:14;;;;;;;5.47;4.85;;;1.70;99.90;;;;;;5016925;28;20367;-65
2023/01/28 04:44:40;;;;;;;8.65;5.03;;;1.70;99.90;;;;;;5013956;28;20044;-64
2023/01/28 04:47:06;;;;;;;5.88;5.18;;;1.60;99.90;;;;;;5002244;28;20433;-63
2023/01/28 04:49:31;;;;;;;6.55;5.10;;;1.70;99.90;;;;;;5011120;28;20049;-63
2023/01/28 04:51:57;;;;;;;6.05;5.13;;;1.70;99.90;;;;;;5017078;28;20067;-64
2023/01/28 04:54:23;;;;;;;5.20;4.68;;;1.70;99.90;;;;;;5014026;28;20585;-63
2023/01/28 04:56:48;;;;;;;7.47;5.05;;;1.70;99.90;;;;;;5024897;28;20044;-64
2023/01/28 04:59:14;;;;;;;6.82;5.15;;;1.70;99.90;;;;;;5011954;28;20046;-64
2023/01/28 05:01:40;;;;;;;6.05;4.93;;;1.70;99.90;;;;;;4998065;28;20520;-64
2023/01/28 05:04:06;;;;;;;5.75;5.10;;;1.70;99.90;;;;;;5020222;28;20807;-64
2023/01/28 05:06:32;;;;;;;6.30;5.43;;;1.70;99.90;;;;;;4987670;28;20057;-64
2023/01/28 05:08:58;;;;;;;6.70;5.28;;;1.70;99.90;;;;;;5021059;28;20040;-64
2023/01/28 05:11:24;;;;;;;5.80;5.10;;;1.70;99.90;;;;;;5022483;28;20037;-64
2023/01/28 05:13:50;;;;;;;6.78;5.10;;;1.70;99.90;;;;;;5029447;28;20102;-64
2023/01/28 05:16:16;;;;;;;5.43;4.93;;;1.70;99.90;;;;;;5014766;28;20045;-65
2023/01/28 05:18:42;;;;;;;8.00;5.32;;;1.70;99.90;;;;;;5020472;28;20033;-64
2023/01/28 05:21:08;;;;;;;7.78;5.03;;;1.70;99.90;;;;;;5023855;28;20068;-64
2023/01/28 05:23:33;;;;;;;6.00;4.85;;;1.60;99.90;;;;;;5022515;28;20247;-63
2023/01/28 05:25:59;;;;;;;5.65;5.05;;;1.60;99.90;;;;;;5027611;28;20076;-64
2023/01/28 05:28:25;;;;;;;7.10;5.43;;;1.60;99.90;;;;;;4983753;28;20041;-63
2023/01/28 05:30:51;;;;;;;6.25;5.65;;;1.60;99.90;;;;;;5027334;28;20069;-63
2023/01/28 05:33:16;;;;;;;7.07;5.78;;;1.60;99.90;;;;;;5025046;28;20049;-63
2023/01/28 05:35:42;;;;;;;5.85;5.25;;;1.60;99.90;;;;;;5023174;28;20132;-63
2023/01/28 05:38:08;;;;;;;7.90;5.75;;;1.60;99.90;;;;;;5023733;28;20049;-65
2023/01/28 05:40:34;;;;;;;6.78;5.95;;;1.70;99.90;;;;;;5035904;28;20120;-64
2023/01/28 05:43:00;;;;;;;6.53;5.93;;;1.60;99.90;;;;;;5026698;28;20037;-63
2023/01/28 05:45:26;;;;;;;6.55;5.40;;;1.60;99.90;;;;;;5006981;28;20060;-64
2023/01/28 05:47:51;;;;;;;6.43;5.75;;;1.60;99.90;;;;;;5016641;28;20045;-63
2023/01/28 05:50:17;;;;;;;6.90;6.00;;;1.60;99.90;;;;;;5003185;28;20382;-64
2023/01/28 05:52:43;;;;;;;8.32;5.88;;;1.60;99.90;;;;;;5007734;28;20132;-64
2023/01/28 05:55:10;;;;;;;8.07;5.80;;;1.60;99.90;;;;;;5015624;28;20103;-64
2023/01/28 05:57:36;;;;;;;6.68;5.80;;;1.60;99.90;;;;;;5015623;28;20159;-63
2023/01/28 06:00:04;;;;;;;6.15;5.50;;;1.60;99.90;;;;;;5010737;28;20441;-63
2023/01/28 06:02:30;;;;;;;5.80;5.13;;;1.60;99.90;;;;;;5021027;28;20431;-63
2023/01/28 06:04:55;;;;;;;6.68;5.55;;;1.60;99.90;;;;;;5004299;28;20145;-63
2023/01/28 06:07:22;;;;;;;8.52;5.50;;;1.60;99.90;;;;;;5019787;28;20063;-62
2023/01/28 06:09:48;;;;;;;6.45;5.38;;;1.60;99.90;;;;;;5017515;28;20137;-62
2023/01/28 06:12:14;;;;;;;6.13;5.63;;;1.60;99.90;;;;;;5000759;28;20095;-64
2023/01/28 06:14:41;;;;;;;6.93;5.40;;;1.60;99.90;;;;;;4999462;28;20242;-64
2023/01/28 06:17:07;;;;;;;7.57;5.80;;;1.60;99.90;;;;;;5027092;28;20529;-63
2023/01/28 06:19:33;;;;;;;7.22;5.55;;;1.60;99.90;;;;;;5021993;28;20037;-63
2023/01/28 06:21:59;;;;;;;6.57;5.50;;;1.60;99.90;;;;;;5022136;28;20041;-64
2023/01/28 06:24:24;;;;;;;8.10;5.78;;;1.60;99.90;;;;;;5024613;28;20140;-64
2023/01/28 06:26:50;;;;;;;7.13;6.43;;;1.50;99.90;;;;;;5027182;28;20091;-64
2023/01/28 06:29:16;;;;;;;6.65;5.97;;;1.50;99.90;;;;;;5019715;28;20317;-64
2023/01/28 06:31:41;;;;;;;6.63;5.97;;;1.40;99.90;;;;;;5008195;28;20406;-64
2023/01/28 06:34:08;;;;;;;7.15;5.82;;;1.40;99.90;;;;;;5010011;28;20190;-64
2023/01/28 06:36:36;;;;;;;6.88;6.00;;;1.30;99.90;;;;;;5009324;28;20045;-63
2023/01/28 06:39:03;;;;;;;6.07;5.35;;;1.30;99.90;;;;;;5004944;28;20578;-64
2023/01/28 06:41:29;;;;;;;6.60;5.70;;;1.20;99.90;;;;;;5024371;28;20044;-63
2023/01/28 06:43:55;;;;;;;6.20;5.60;;;1.20;99.90;;;;;;5018050;28;20042;-64
2023/01/28 06:46:20;;;;;;;6.88;6.18;;;1.10;99.90;;;;;;5025637;28;20532;-64
2023/01/28 06:48:46;;;;;;;7.10;6.40;;;1.10;99.90;;;;;;5023646;28;20098;-64
2023/01/28 06:51:12;;;;;;;7.60;5.80;;;1.00;99.90;;;;;;5021989;28;20490;-64
2023/01/28 06:53:37;;;;;;;6.63;5.60;;;0.90;99.90;;;;;;5019838;28;20037;-64
2023/01/28 06:56:04;;;;;;;7.28;6.57;;;0.90;99.90;;;;;;5008802;28;20038;-64
2023/01/28 06:58:29;;;;;;;8.98;6.18;;;0.80;99.90;;;;;;5025787;28;20049;-64
2023/01/28 07:00:55;;;;;;;7.93;6.70;;;0.70;99.90;;;;;;5021505;28;20064;-64
2023/01/28 07:03:21;;;;;;;8.35;7.22;;;0.70;99.90;;;;;;5023494;28;20498;-64
2023/01/28 07:05:46;;;;;;;7.97;6.50;;;0.60;99.90;;;;;;5022187;28;20063;-63
2023/01/28 07:08:12;;;;;;;9.00;7.53;;;0.50;99.90;;;;;;5015802;28;20148;-66
2023/01/28 07:10:38;;;;;;;10.93;7.97;;;0.50;99.90;;;;;;5018071;28;20041;-64
2023/01/28 07:13:03;;;;;;;11.40;8.70;;;0.40;99.90;;;;;;5013278;28;20480;-63
2023/01/28 07:15:29;;;;;;;12.93;9.52;;;0.30;99.90;;;;;;5014306;28;20041;-63
2023/01/28 07:17:55;;;;;;;13.02;10.55;;;0.30;99.90;;;;;;5017580;28;20037;-63
2023/01/28 07:20:21;;;;;;;11.63;9.55;;;0.20;99.90;;;;;;5000230;28;20498;-63
2023/01/28 07:22:50;;;;;;;12.63;9.90;;;0.10;99.90;;;;;;5018070;28;20057;-63
2023/01/28 07:25:16;;;;;;;12.40;9.90;;;0.10;99.90;;;;;;5011130;28;20502;-63
2023/01/28 07:27:49;;;;;;;14.13;10.43;;;0.00;99.90;;;;;;5015138;28;20036;-64
2023/01/28 07:30:16;;;;;;;;;;;-0.10;99.90;;;;;;5017535;28;20033;-62
2023/01/28 07:32:42;;;;;;;13.35;10.82;;;-0.10;1.00;;;;;;5013427;28;20460;-62
2023/01/28 07:35:08;;;;;;;12.45;11.05;;;-0.20;99.90;;;;;;4992522;28;20049;-62
2023/01/28 07:37:33;;;;;;;13.88;11.73;;;-0.30;99.90;;;;;;5020787;28;20068;-63
2023/01/28 07:39:59;;;;;;;13.82;11.93;;;-0.30;99.90;;;;;;5018434;28;20140;-63
2023/01/28 07:42:25;;;;;;;13.07;11.43;;;-0.40;99.90;;;;;;5007662;28;20119;-63
2023/01/28 07:44:50;;;;;;;14.27;12.00;;;-0.50;99.90;;;;;;5019413;28;20091;-63
2023/01/28 07:47:16;;;;;;;16.15;12.30;;;-0.50;99.90;;;;;;5019185;28;20623;-63
2023/01/28 07:49:42;;;;;;;17.95;13.80;;;-0.50;99.90;;;;;;5014134;28;20033;-63
2023/01/28 07:52:08;;;;;;;17.75;13.65;;;-0.60;99.90;;;;;;4999911;28;20033;-63
2023/01/28 07:54:33;;;;;;;15.88;12.95;;;-0.60;99.90;;;;;;5019524;28;20072;-63
2023/01/28 07:57:00;;;;;;;16.17;12.35;;;-0.60;99.90;;;;;;5013179;28;20034;-63
2023/01/28 07:59:26;;;;;;;22.40;15.43;;;-0.60;99.90;;;;;;5023737;28;20205;-63
2023/01/28 08:01:53;;;;;;;18.90;14.55;;;-0.60;99.90;;;;;;5021026;28;20750;-63
2023/01/28 08:04:19;;;;;;;15.73;13.25;;;-0.60;99.90;;;;;;5003844;28;20048;-63
2023/01/28 08:06:45;;;;;;;16.73;13.65;;;-0.60;99.90;;;;;;5025726;28;20355;-63
2023/01/28 08:09:12;;;;;;;16.55;13.25;;;-0.60;99.90;;;;;;5002794;28;20506;-64
2023/01/28 08:11:38;;;;;;;18.17;14.18;;;-0.50;99.90;;;;;;5019760;28;20048;-62
2023/01/28 08:14:04;;;;;;;16.40;13.65;;;-0.40;1.00;;;;;;5023512;28;20212;-63
2023/01/28 08:16:30;;;;;;;16.67;14.73;;;-0.20;1.00;;;;;;5022913;28;20812;-64
2023/01/28 08:18:56;;;;;;;14.55;12.82;;;-0.10;1.00;;;;;;5019741;28;20539;-63
2023/01/28 08:21:25;;;;;;;15.98;12.77;;;0.20;1.00;;;;;;4999326;28;20053;-64
2023/01/28 08:23:53;;;;;;;13.80;11.63;;;0.40;1.00;;;;;;5009440;28;20075;-64
2023/01/28 08:26:20;;;;;;;13.93;12.30;;;0.60;1.00;;;;;;5021775;28;20068;-63
2023/01/28 08:28:46;;;;;;;13.82;11.52;;;0.70;1.00;;;;;;5021738;28;20304;-63
2023/01/28 08:31:12;;;;;;;13.30;11.23;;;0.80;1.00;;;;;;5021351;28;20033;-62
2023/01/28 08:33:38;;;;;;;13.18;11.30;;;0.90;1.00;;;;;;5012690;28;20041;-63
2023/01/28 08:36:04;;;;;;;14.07;11.43;;;1.00;1.00;;;;;;5014188;28;20041;-63
2023/01/28 08:38:30;;;;;;;14.00;11.70;;;1.00;1.00;;;;;;5013545;28;20387;-63
2023/01/28 08:40:57;;;;;;;16.52;12.20;;;1.10;1.00;;;;;;5011572;28;20052;-64
2023/01/28 08:43:24;;;;;;;13.65;12.20;;;1.10;1.00;;;;;;5019641;28;20102;-64
2023/01/28 08:45:50;;;;;;;13.32;11.70;;;1.10;1.00;;;;;;5017770;28;20126;-65
2023/01/28 08:48:18;;;;;;;13.35;11.65;;;1.00;1.00;;;;;;5031560;28;20040;-63
2023/01/28 08:50:44;;;;;;;14.05;11.52;;;0.90;1.00;;;;;;5022623;28;20076;-64
2023/01/28 08:53:12;;;;;;;12.93;11.63;;;0.80;1.00;;;;;;5012234;28;20046;-64
2023/01/28 08:55:38;;;;;;;16.50;12.60;;;0.80;1.00;;;;;;5015620;28;20729;-65
2023/01/28 08:58:07;;;;;;;12.27;11.18;;;0.90;1.00;;;;;;5018510;28;20196;-64
2023/01/28 09:00:33;;;;;;;13.73;11.65;;;0.90;1.00;;;;;;5016710;28;20078;-64
2023/01/28 09:02:59;;;;;;;11.80;10.57;;;1.00;1.00;;;;;;4999903;28;20132;-64
2023/01/28 09:05:25;;;;;;;12.15;10.20;;;1.10;1.00;;;;;;5016144;28;20044;-64
2023/01/28 09:07:51;;;;;;;11.38;10.20;;;1.20;1.00;;;;;;5016600;28;20062;-63
2023/01/28 09:10:19;;;;;;;10.75;9.75;;;1.30;1.00;;;;;;4999498;28;20037;-63
2023/01/28 09:12:45;;;;;;;10.35;9.35;;;1.40;1.00;;;;;;5016194;28;20038;-62
2023/01/28 09:15:11;;;;;;;10.43;9.43;;;1.60;1.00;;;;;;5015814;28;20041;-64
2023/01/28 09:17:37;;;;;;;9.18;8.27;;;1.80;1.00;;;;;;5013496;28;20136;-63
2023/01/28 09:20:04;;;;;;;9.27;8.38;;;2.00;99.90;;;;;;5013071;28;20046;-62
2023/01/28 09:22:31;;;;;;;9.68;8.15;;;2.20;99.90;;;;;;5016066;28;20049;-63
2023/01/28 09:24:57;;;;;;;8.27;7.47;;;2.40;99.90;;;;;;5015409;28;20036;-63
2023/01/28 09:27:22;;;;;;;8.00;7.20;;;2.70;99.90;;;;;;5015418;28;20049;-63
2023/01/28 09:29:48;;;;;;;6.55;5.88;;;2.90;99.90;;;;;;5015032;28;20107;-63
2023/01/28 09:32:14;;;;;;;6.50;5.90;;;3.10;99.90;;;;;;5016932;28;20041;-63
2023/01/28 09:34:39;;;;;;;7.03;6.43;;;3.10;99.90;;;;;;5014791;28;20104;-64
2023/01/28 09:37:05;;;;;;;7.00;6.25;;;3.20;99.90;;;;;;5015606;28;20052;-63
2023/01/28 09:39:31;;;;;;;6.85;6.13;;;3.10;99.90;;;;;;5016521;28;20073;-63
2023/01/28 09:42:38;;;;;;;6.05;5.47;;;3.10;99.90;;;;;;5014713;28;20064;-64
2023/01/28 09:45:19;;;;;;;6.03;5.53;;;3.10;99.90;;;;;;5014483;28;20204;-65
2023/01/28 09:47:47;;;;;;;7.05;5.20;;;3.00;99.90;;;;;;5015129;28;20033;-64
2023/01/28 09:50:35;;;;;;;6.82;6.05;;;2.90;99.90;;;;;;5031484;28;20582;-64
2023/01/28 09:53:11;;;;;;;5.72;5.22;;;2.80;99.90;;;;;;5018344;28;20106;-63
2023/01/28 09:55:43;;;;;;;6.78;6.18;;;2.80;99.90;;;;;;5018399;28;20045;-63
2023/01/28 09:58:14;;;;;;;7.95;6.20;;;2.70;99.90;;;;;;5020180;28;20543;-63
2023/01/28 10:01:06;;;;;;;7.10;6.10;;;2.80;99.90;;;;;;5017791;28;20041;-63
2023/01/28 10:03:51;;;;;;;6.55;5.95;;;2.80;99.90;;;;;;5019576;28;20491;-63
2023/01/28 10:06:24;;;;;;;11.52;5.97;;;2.80;99.90;;;;;;5019685;28;20216;-63
2023/01/28 10:09:07;;;;;;;6.63;5.80;;;2.90;99.90;;;;;;5019435;28;20145;-63
2023/01/28 10:12:00;;;;;;;6.70;6.03;;;3.00;99.90;;;;;;5018489;28;20204;-64
2023/01/28 10:14:44;;;;;;;6.82;6.18;;;3.00;99.90;;;;;;5019739;28;20408;-63
2023/01/28 10:17:20;;;;;;;6.85;6.25;;;3.00;99.90;;;;;;5020506;28;20116;-64
2023/01/28 10:19:54;;;;;;;7.50;6.80;;;3.00;99.90;;;;;;5018621;28;20556;-63
2023/01/28 10:22:29;;;;;;;6.72;6.13;;;3.20;99.90;;;;;;5001805;28;20470;-64
2023/01/28 10:25:02;;;;;;;6.22;5.63;;;3.40;99.90;;;;;;5018698;28;20098;-63
2023/01/28 10:27:30;;;;;;;5.65;5.07;;;3.70;99.90;;;;;;5039084;28;20041;-65
2023/01/28 10:29:58;;;;;;;6.47;4.97;;;4.60;99.90;;;;;;5038176;28;20045;-65
2023/01/28 10:32:32;;;;;;;5.25;4.85;;;5.30;99.90;;;;;;5038110;28;20083;-64
2023/01/28 10:35:00;;;;;;;6.97;5.53;;;5.20;99.90;;;;;;5037559;28;20315;-64
2023/01/28 10:37:28;;;;;;;7.30;5.30;;;4.90;99.90;;;;;;5036976;28;20091;-63
2023/01/28 10:39:58;;;;;;;6.47;5.88;;;4.70;99.90;;;;;;5038409;28;20096;-64
2023/01/28 10:42:35;;;;;;;5.88;5.38;;;4.60;99.90;;;;;;5037127;28;20072;-63
2023/01/28 10:45:29;;;;;;;5.40;4.90;;;4.70;99.90;;;;;;5038033;28;20045;-64
2023/01/28 10:48:05;;;;;;;6.88;5.50;;;4.70;99.90;;;;;;5019902;28;20049;-64
2023/01/28 10:50:34;;;;;;;6.10;5.20;;;4.60;99.90;;;;;;5019901;28;20079;-65
2023/01/28 10:53:01;;;;;;;6.50;5.90;;;4.60;99.90;;;;;;5036626;28;20564;-64
2023/01/28 10:55:57;;;;;;;5.57;5.15;;;4.70;99.90;;;;;;5019712;28;20095;-64
2023/01/28 10:58:26;;;;;;;7.47;5.85;;;4.70;99.90;;;;;;5037784;28;20068;-64
2023/01/28 11:01:03;;;;;;;5.70;4.75;;;4.80;99.90;;;;;;5037007;28;20286;-64
2023/01/28 11:03:34;;;;;;;5.70;5.05;;;4.80;99.90;;;;;;5037444;28;20040;-63
2023/01/28 11:06:01;;;;;;;4.90;4.50;;;4.80;99.90;;;;;;5036651;28;20045;-64
2023/01/28 11:08:28;;;;;;;5.60;5.00;;;4.80;99.90;;;;;;5035425;28;20626;-63
2023/01/28 11:10:55;;;;;;;5.88;5.38;;;4.80;99.90;;;;;;5036631;28;20048;-63
2023/01/28 11:13:50;;;;;;;5.70;5.03;;;4.90;99.90;;;;;;5019138;28;20052;-63
2023/01/28 11:16:17;;;;;;;5.63;5.00;;;4.90;99.90;;;;;;5034404;28;20187;-65
2023/01/28 11:18:56;;;;;;;6.38;5.40;;;4.90;99.90;;;;;;5036401;28;20049;-64
2023/01/28 11:21:25;;;;;;;6.35;5.70;;;4.90;99.90;;;;;;5035245;28;20045;-63
2023/01/28 11:23:55;;;;;;;5.15;4.70;;;4.70;99.90;;;;;;5035910;28;20051;-64
2023/01/28 11:26:31;;;;;;;6.35;5.13;;;4.80;99.90;;;;;;5034800;28;20044;-64
2023/01/28 11:28:57;;;;;;;5.25;4.78;;;4.80;99.90;;;;;;5036923;28;20856;-63
2023/01/28 11:31:24;;;;;;;5.60;4.93;;;4.80;99.90;;;;;;5034705;28;20580;-63
2023/01/28 11:33:52;;;;;;;6.10;5.60;;;4.80;99.90;;;;;;5036219;28;20048;-64
2023/01/28 11:36:27;;;;;;;6.10;4.80;;;4.80;99.90;;;;;;5035742;28;20108;-64
2023/01/28 11:38:56;;;;;;;5.80;4.95;;;4.90;99.90;;;;;;5034831;28;20044;-63
2023/01/28 11:41:33;;;;;;;5.75;5.00;;;4.90;99.90;;;;;;5033417;28;20055;-64
2023/01/28 11:44:14;;;;;;;8.45;5.88;;;4.90;99.90;;;;;;5015216;28;20079;-64
2023/01/28 11:46:57;;;;;;;6.43;4.95;;;4.90;99.90;;;;;;5015260;28;20797;-62
2023/01/28 11:49:35;;;;;;;7.90;5.28;;;4.90;99.90;;;;;;5014494;28;20152;-63
2023/01/28 11:52:17;;;;;;;6.80;4.80;;;5.00;99.90;;;;;;5014144;28;20507;-63
2023/01/28 11:54:55;;;;;;;8.88;5.40;;;5.00;99.90;;;;;;5015682;28;20064;-64
2023/01/28 11:57:36;;;;;;;5.80;5.28;;;5.10;99.90;;;;;;5021879;28;20047;-63
2023/01/28 12:00:16;;;;;;;8.57;5.10;;;5.20;99.90;;;;;;5030987;28;20124;-64
2023/01/28 12:03:09;;;;;;;5.65;4.97;;;5.20;99.90;;;;;;5018011;28;20059;-62
2023/01/28 12:05:56;;;;;;;7.70;5.35;;;5.10;99.90;;;;;;5011961;28;20045;-62
2023/01/28 12:08:49;;;;;;;6.43;5.32;;;4.80;99.90;;;;;;5031672;28;20057;-63
2023/01/28 12:14:51;;;;;;;6.30;5.10;;;4.90;99.90;;;;;;5023228;28;20535;-63
2023/01/28 12:17:41;;;;;;;6.05;5.10;;;5.30;99.90;;;;;;5012476;28;20037;-63
2023/01/28 12:20:22;;;;;;;5.68;5.10;;;6.20;99.90;;;;;;4996149;28;20219;-64
2023/01/28 12:23:09;;;;;;;7.57;5.25;;;6.40;99.90;;;;;;5026154;28;20596;-63
2023/01/28 12:25:45;;;;;;;7.05;5.45;;;6.10;99.90;;;;;;5012982;28;20045;-63
2023/01/28 12:28:29;;;;;;;5.53;5.03;;;5.80;99.90;;;;;;5015274;28;20160;-64
2023/01/28 12:31:13;;;;;;;6.70;5.30;;;5.70;99.90;;;;;;5015242;28;20495;-63
2023/01/28 12:34:11;;;;;;;;;;;5.50;99.90;;;;;;5033734;28;20079;-63
2023/01/28 12:36:49;;;;;;;5.25;4.75;;;5.40;99.90;;;;;;5009790;28;19974;-63
2023/01/28 12:39:49;;;;;;;4.93;4.47;;;5.50;99.90;;;;;;5032157;28;20364;-63
2023/01/28 12:42:29;;;;;;;5.78;5.18;;;5.40;99.90;;;;;;5032898;28;20102;-64
2023/01/28 12:45:11;;;;;;;6.53;4.93;;;5.30;99.90;;;;;;5032327;28;20041;-63
2023/01/28 12:47:40;;;;;;;6.40;5.53;;;5.20;99.90;;;;;;5031646;28;20060;-64
2023/01/28 12:50:37;;;;;;;6.35;5.30;;;5.20;99.90;;;;;;5033770;28;20107;-64
2023/01/28 12:53:22;;;;;;;5.65;5.15;;;5.30;99.90;;;;;;5025486;28;20068;-64
2023/01/28 12:55:59;;;;;;;6.78;5.75;;;5.30;99.90;;;;;;5033367;28;20332;-64
2023/01/28 12:58:39;;;;;;;7.28;6.20;;;5.40;99.90;;;;;;5031703;28;20296;-64
2023/01/28 13:01:10;;;;;;;9.77;5.22;;;5.40;99.90;;;;;;5034005;28;20040;-64
2023/01/28 13:03:54;;;;;;;7.65;5.72;;;5.50;99.90;;;;;;5033905;28;20186;-65
2023/01/28 13:06:43;;;;;;;;;;;5.40;99.90;;;;;;5032583;28;20053;-64
2023/01/28 13:09:28;;;;;;;7.60;5.75;;;5.30;99.90;;;;;;5028667;28;19948;-64
2023/01/28 13:11:59;;;;;;;9.30;6.57;;;5.30;99.90;;;;;;5033502;28;20646;-64
2023/01/28 13:14:30;;;;;;;11.27;6.30;;;5.20;99.90;;;;;;4996032;28;20514;-64
2023/01/28 13:17:11;;;;;;;8.35;6.57;;;5.10;99.90;;;;;;5012526;28;20128;-64
2023/01/28 13:19:41;;;;;;;6.95;5.88;;;5.40;99.90;;;;;;4997169;28;20498;-65
2023/01/28 13:22:24;;;;;;;9.00;6.55;;;6.50;99.90;;;;;;5012992;28;20045;-65
2023/01/28 13:24:50;;;;;;;7.38;5.72;;;7.20;99.90;;;;;;5012710;28;20426;-65
2023/01/28 13:27:24;;;;;;;6.22;5.63;;;7.90;99.90;;;;;;5014990;28;20403;-65
2023/01/28 13:30:00;;;;;;;6.18;4.95;;;7.80;97.70;;;;;;5017818;28;20041;-66
2023/01/28 13:32:29;;;;;;;6.22;5.57;;;7.90;99.90;;;;;;4999382;28;20259;-66
2023/01/28 13:34:58;;;;;;;8.05;5.95;;;8.00;54.50;;;;;;4999174;28;20041;-65
2023/01/28 13:37:39;;;;;;;6.53;5.93;;;7.60;49.50;;;;;;5017545;28;20602;-65
2023/01/28 13:40:14;;;;;;;9.13;6.13;;;7.20;51.80;;;;;;5017413;28;20522;-64
2023/01/28 13:42:40;;;;;;;7.05;6.15;;;6.60;88.60;;;;;;5015795;28;20049;-65
2023/01/28 13:45:32;;;;;;;7.28;5.97;;;6.10;99.90;;;;;;4998983;28;20128;-65